sensor_id;sensor_type;location;lat;lon;timestamp;temperature;humidity
39951;DHT22;25629;51.444;-2.606;2022-12-07T00:01:05;4.10;99.90
39951;DHT22;25629;51.444;-2.606;2022-12-07T00:03:30;4.10;99.90
39951;DHT22;25629;51.444;-2.606;2022-12-07T00:06:00;4.10;99.90
39951;DHT22;25629;51.444;-2.606;2022-12-07T00:08:26;4.20;99.90
39951;DHT22;25629;51.444;-2.606;2022-12-07T00:10:52;4.20;99.90
39951;DHT22;25629;51.444;-2.606;2022-12-07T00:13:17;4.20;99.90
39951;DHT22;25629;51.444;-2.606;2022-12-07T00:15:44;4.10;99.90
39951;DHT22;25629;51.444;-2.606;2022-12-07T00:18:09;4.10;99.90
39951;DHT22;25629;51.444;-2.606;2022-12-07T00:20:35;4.10;99.90
39951;DHT22;25629;51.444;-2.606;2022-12-07T00:23:01;4.00;99.90
39951;DHT22;25629;51.444;-2.606;2022-12-07T00:25:26;4.00;99.90
39951;DHT22;25629;51.444;-2.606;2022-12-07T00:27:53;3.90;99.90
39951;DHT22;25629;51.444;-2.606;2022-12-07T00:30:21;3.90;99.90
39951;DHT22;25629;51.444;-2.606;2022-12-07T00:32:47;3.80;99.90
39951;DHT22;25629;51.444;-2.606;2022-12-07T00:35:13;3.80;99.90
39951;DHT22;25629;51.444;-2.606;2022-12-07T00:37:39;3.70;99.90
39951;DHT22;25629;51.444;-2.606;2022-12-07T00:40:05;3.70;99.90
39951;DHT22;25629;51.444;-2.606;2022-12-07T00:42:31;3.70;99.90
39951;DHT22;25629;51.444;-2.606;2022-12-07T00:44:57;3.60;99.90
39951;DHT22;25629;51.444;-2.606;2022-12-07T00:47:22;3.70;99.90
39951;DHT22;25629;51.444;-2.606;2022-12-07T00:49:48;3.70;99.90
39951;DHT22;25629;51.444;-2.606;2022-12-07T00:52:14;3.60;99.90
39951;DHT22;25629;51.444;-2.606;2022-12-07T00:54:40;3.60;99.90
39951;DHT22;25629;51.444;-2.606;2022-12-07T00:57:05;3.60;99.90
39951;DHT22;25629;51.444;-2.606;2022-12-07T00:59:31;3.50;99.90
39951;DHT22;25629;51.444;-2.606;2022-12-07T01:01:57;3.50;99.90
39951;DHT22;25629;51.444;-2.606;2022-12-07T01:04:22;3.40;99.90
39951;DHT22;25629;51.444;-2.606;2022-12-07T01:06:48;3.30;99.90
39951;DHT22;25629;51.444;-2.606;2022-12-07T01:09:14;3.30;99.90
39951;DHT22;25629;51.444;-2.606;2022-12-07T01:11:39;3.20;99.90
39951;DHT22;25629;51.444;-2.606;2022-12-07T01:14:05;3.20;99.90
39951;DHT22;25629;51.444;-2.606;2022-12-07T01:16:32;3.10;99.90
39951;DHT22;25629;51.444;-2.606;2022-12-07T01:18:58;3.10;99.90
39951;DHT22;25629;51.444;-2.606;2022-12-07T01:21:30;3.10;99.90
39951;DHT22;25629;51.444;-2.606;2022-12-07T01:24:00;3.10;99.90
39951;DHT22;25629;51.444;-2.606;2022-12-07T01:26:26;3.10;99.90
39951;DHT22;25629;51.444;-2.606;2022-12-07T01:28:52;3.10;99.90
39951;DHT22;25629;51.444;-2.606;2022-12-07T01:31:24;3.00;99.90
39951;DHT22;25629;51.444;-2.606;2022-12-07T01:33:52;3.00;99.90
39951;DHT22;25629;51.444;-2.606;2022-12-07T01:36:26;3.00;99.90
39951;DHT22;25629;51.444;-2.606;2022-12-07T01:38:56;3.00;99.90
39951;DHT22;25629;51.444;-2.606;2022-12-07T01:41:24;2.90;99.90
39951;DHT22;25629;51.444;-2.606;2022-12-07T01:44:10;3.00;99.90
39951;DHT22;25629;51.444;-2.606;2022-12-07T01:46:37;3.00;99.90
39951;DHT22;25629;51.444;-2.606;2022-12-07T01:49:05;2.90;99.90
39951;DHT22;25629;51.444;-2.606;2022-12-07T01:51:31;2.90;99.90
39951;DHT22;25629;51.444;-2.606;2022-12-07T01:53:58;2.90;99.90
39951;DHT22;25629;51.444;-2.606;2022-12-07T01:56:26;2.90;99.90
39951;DHT22;25629;51.444;-2.606;2022-12-07T01:58:53;2.80;99.90
39951;DHT22;25629;51.444;-2.606;2022-12-07T02:01:19;2.80;99.90
39951;DHT22;25629;51.444;-2.606;2022-12-07T02:03:45;2.70;99.90
39951;DHT22;25629;51.444;-2.606;2022-12-07T02:06:14;2.70;99.90
39951;DHT22;25629;51.444;-2.606;2022-12-07T02:08:42;2.70;99.90
39951;DHT22;25629;51.444;-2.606;2022-12-07T02:11:09;2.70;99.90
39951;DHT22;25629;51.444;-2.606;2022-12-07T02:13:38;2.70;99.90
39951;DHT22;25629;51.444;-2.606;2022-12-07T02:21:46;2.70;99.90
39951;DHT22;25629;51.444;-2.606;2022-12-07T02:30:12;2.80;99.90
39951;DHT22;25629;51.444;-2.606;2022-12-07T02:32:43;2.70;99.90
39951;DHT22;25629;51.444;-2.606;2022-12-07T02:35:26;2.70;99.90
39951;DHT22;25629;51.444;-2.606;2022-12-07T02:38:08;2.60;99.90
39951;DHT22;25629;51.444;-2.606;2022-12-07T02:43:30;2.50;99.90
39951;DHT22;25629;51.444;-2.606;2022-12-07T02:46:09;2.50;99.90
39951;DHT22;25629;51.444;-2.606;2022-12-07T02:48:37;2.50;99.90
39951;DHT22;25629;51.444;-2.606;2022-12-07T02:51:04;2.50;99.90
39951;DHT22;25629;51.444;-2.606;2022-12-07T02:53:35;2.50;99.90
39951;DHT22;25629;51.444;-2.606;2022-12-07T02:56:28;2.50;99.90
39951;DHT22;25629;51.444;-2.606;2022-12-07T03:02:05;2.40;99.90
39951;DHT22;25629;51.444;-2.606;2022-12-07T03:04:56;2.40;99.90
39951;DHT22;25629;51.444;-2.606;2022-12-07T03:10:00;2.40;99.90
39951;DHT22;25629;51.444;-2.606;2022-12-07T03:12:35;2.30;99.90
39951;DHT22;25629;51.444;-2.606;2022-12-07T03:15:09;2.30;99.90
39951;DHT22;25629;51.444;-2.606;2022-12-07T03:17:40;2.30;99.90
39951;DHT22;25629;51.444;-2.606;2022-12-07T03:20:09;2.30;99.90
39951;DHT22;25629;51.444;-2.606;2022-12-07T03:22:38;2.30;99.90
39951;DHT22;25629;51.444;-2.606;2022-12-07T03:25:11;2.30;99.90
39951;DHT22;25629;51.444;-2.606;2022-12-07T03:28:00;2.30;99.90
39951;DHT22;25629;51.444;-2.606;2022-12-07T03:30:36;2.30;99.90
39951;DHT22;25629;51.444;-2.606;2022-12-07T03:33:11;2.30;99.90
39951;DHT22;25629;51.444;-2.606;2022-12-07T03:35:53;2.30;99.90
39951;DHT22;25629;51.444;-2.606;2022-12-07T03:38:34;2.30;99.90
39951;DHT22;25629;51.444;-2.606;2022-12-07T03:41:09;2.30;99.90
39951;DHT22;25629;51.444;-2.606;2022-12-07T03:43:38;2.30;99.90
39951;DHT22;25629;51.444;-2.606;2022-12-07T03:46:34;2.30;99.90
39951;DHT22;25629;51.444;-2.606;2022-12-07T03:57:22;2.40;99.90
39951;DHT22;25629;51.444;-2.606;2022-12-07T03:59:50;2.30;99.90
39951;DHT22;25629;51.444;-2.606;2022-12-07T04:02:16;2.30;99.90
39951;DHT22;25629;51.444;-2.606;2022-12-07T04:04:42;2.30;99.90
39951;DHT22;25629;51.444;-2.606;2022-12-07T04:07:08;2.30;99.90
39951;DHT22;25629;51.444;-2.606;2022-12-07T04:09:34;2.20;99.90
39951;DHT22;25629;51.444;-2.606;2022-12-07T04:12:00;2.20;99.90
39951;DHT22;25629;51.444;-2.606;2022-12-07T04:14:25;2.10;99.90
39951;DHT22;25629;51.444;-2.606;2022-12-07T04:16:54;2.00;99.90
39951;DHT22;25629;51.444;-2.606;2022-12-07T04:19:26;2.10;99.90
39951;DHT22;25629;51.444;-2.606;2022-12-07T04:21:53;2.00;99.90
39951;DHT22;25629;51.444;-2.606;2022-12-07T04:24:19;2.00;99.90
39951;DHT22;25629;51.444;-2.606;2022-12-07T04:26:46;2.00;99.90
39951;DHT22;25629;51.444;-2.606;2022-12-07T04:29:12;2.00;99.90
39951;DHT22;25629;51.444;-2.606;2022-12-07T04:31:38;1.90;99.90
39951;DHT22;25629;51.444;-2.606;2022-12-07T04:34:04;1.90;99.90
39951;DHT22;25629;51.444;-2.606;2022-12-07T04:36:31;1.90;99.90
39951;DHT22;25629;51.444;-2.606;2022-12-07T04:38:56;1.80;99.90
39951;DHT22;25629;51.444;-2.606;2022-12-07T04:41:23;1.80;99.90
39951;DHT22;25629;51.444;-2.606;2022-12-07T04:44:00;1.70;99.90
39951;DHT22;25629;51.444;-2.606;2022-12-07T04:46:27;1.70;99.90
39951;DHT22;25629;51.444;-2.606;2022-12-07T04:48:54;1.70;99.90
39951;DHT22;25629;51.444;-2.606;2022-12-07T04:51:23;1.60;99.90
39951;DHT22;25629;51.444;-2.606;2022-12-07T04:53:49;1.70;99.90
39951;DHT22;25629;51.444;-2.606;2022-12-07T04:56:16;1.70;99.90
39951;DHT22;25629;51.444;-2.606;2022-12-07T04:58:43;1.60;99.90
39951;DHT22;25629;51.444;-2.606;2022-12-07T05:01:09;1.70;99.90
39951;DHT22;25629;51.444;-2.606;2022-12-07T05:03:36;1.70;99.90
39951;DHT22;25629;51.444;-2.606;2022-12-07T05:06:02;1.70;99.90
39951;DHT22;25629;51.444;-2.606;2022-12-07T05:08:28;1.80;99.90
39951;DHT22;25629;51.444;-2.606;2022-12-07T05:10:54;1.80;99.90
39951;DHT22;25629;51.444;-2.606;2022-12-07T05:13:20;1.90;99.90
39951;DHT22;25629;51.444;-2.606;2022-12-07T05:15:47;2.00;99.90
39951;DHT22;25629;51.444;-2.606;2022-12-07T05:18:13;2.10;99.90
39951;DHT22;25629;51.444;-2.606;2022-12-07T05:20:39;2.10;99.90
39951;DHT22;25629;51.444;-2.606;2022-12-07T05:23:05;2.20;99.90
39951;DHT22;25629;51.444;-2.606;2022-12-07T05:25:31;2.20;99.90
39951;DHT22;25629;51.444;-2.606;2022-12-07T05:27:56;2.10;99.90
39951;DHT22;25629;51.444;-2.606;2022-12-07T05:30:23;2.10;99.90
39951;DHT22;25629;51.444;-2.606;2022-12-07T05:32:49;2.10;99.90
39951;DHT22;25629;51.444;-2.606;2022-12-07T05:35:15;2.00;99.90
39951;DHT22;25629;51.444;-2.606;2022-12-07T05:37:41;1.90;99.90
39951;DHT22;25629;51.444;-2.606;2022-12-07T05:40:07;1.80;99.90
39951;DHT22;25629;51.444;-2.606;2022-12-07T05:42:33;1.80;99.90
39951;DHT22;25629;51.444;-2.606;2022-12-07T05:44:59;1.70;99.90
39951;DHT22;25629;51.444;-2.606;2022-12-07T05:47:25;1.70;99.90
39951;DHT22;25629;51.444;-2.606;2022-12-07T05:49:50;1.70;99.90
39951;DHT22;25629;51.444;-2.606;2022-12-07T05:52:16;1.60;99.90
39951;DHT22;25629;51.444;-2.606;2022-12-07T05:54:42;1.60;99.90
39951;DHT22;25629;51.444;-2.606;2022-12-07T05:57:07;1.60;99.90
39951;DHT22;25629;51.444;-2.606;2022-12-07T05:59:33;1.60;99.90
39951;DHT22;25629;51.444;-2.606;2022-12-07T06:02:03;1.60;99.90
39951;DHT22;25629;51.444;-2.606;2022-12-07T06:04:31;1.60;99.90
39951;DHT22;25629;51.444;-2.606;2022-12-07T06:06:57;1.50;99.90
39951;DHT22;25629;51.444;-2.606;2022-12-07T06:09:25;1.60;99.90
39951;DHT22;25629;51.444;-2.606;2022-12-07T06:11:51;1.70;99.90
39951;DHT22;25629;51.444;-2.606;2022-12-07T06:14:35;1.70;99.90
39951;DHT22;25629;51.444;-2.606;2022-12-07T06:17:01;1.70;99.90
39951;DHT22;25629;51.444;-2.606;2022-12-07T06:19:27;1.70;99.90
39951;DHT22;25629;51.444;-2.606;2022-12-07T06:21:53;1.60;99.90
39951;DHT22;25629;51.444;-2.606;2022-12-07T06:24:19;1.60;99.90
39951;DHT22;25629;51.444;-2.606;2022-12-07T06:26:45;1.60;99.90
39951;DHT22;25629;51.444;-2.606;2022-12-07T06:29:11;1.60;99.90
39951;DHT22;25629;51.444;-2.606;2022-12-07T06:31:37;1.60;99.90
39951;DHT22;25629;51.444;-2.606;2022-12-07T06:34:05;1.70;99.90
39951;DHT22;25629;51.444;-2.606;2022-12-07T06:36:31;1.70;99.90
39951;DHT22;25629;51.444;-2.606;2022-12-07T06:38:57;1.70;99.90
39951;DHT22;25629;51.444;-2.606;2022-12-07T06:41:23;1.80;99.90
39951;DHT22;25629;51.444;-2.606;2022-12-07T06:43:49;1.70;99.90
39951;DHT22;25629;51.444;-2.606;2022-12-07T06:46:15;1.60;99.90
39951;DHT22;25629;51.444;-2.606;2022-12-07T06:48:41;1.60;99.90
39951;DHT22;25629;51.444;-2.606;2022-12-07T06:51:07;1.50;99.90
39951;DHT22;25629;51.444;-2.606;2022-12-07T06:53:33;1.50;99.90
39951;DHT22;25629;51.444;-2.606;2022-12-07T06:55:59;1.50;99.90
39951;DHT22;25629;51.444;-2.606;2022-12-07T06:58:25;1.40;99.90
39951;DHT22;25629;51.444;-2.606;2022-12-07T07:00:50;1.40;99.90
39951;DHT22;25629;51.444;-2.606;2022-12-07T07:03:16;1.40;99.90
39951;DHT22;25629;51.444;-2.606;2022-12-07T07:05:42;1.30;99.90
39951;DHT22;25629;51.444;-2.606;2022-12-07T07:08:09;1.30;99.90
39951;DHT22;25629;51.444;-2.606;2022-12-07T07:10:35;1.30;99.90
39951;DHT22;25629;51.444;-2.606;2022-12-07T07:13:02;1.30;99.90
39951;DHT22;25629;51.444;-2.606;2022-12-07T07:15:27;1.30;99.90
39951;DHT22;25629;51.444;-2.606;2022-12-07T07:17:53;1.30;99.90
39951;DHT22;25629;51.444;-2.606;2022-12-07T07:20:19;1.30;99.90
39951;DHT22;25629;51.444;-2.606;2022-12-07T07:22:45;1.30;99.90
39951;DHT22;25629;51.444;-2.606;2022-12-07T07:25:11;1.30;99.90
39951;DHT22;25629;51.444;-2.606;2022-12-07T07:27:36;1.20;99.90
39951;DHT22;25629;51.444;-2.606;2022-12-07T07:30:03;1.20;99.90
39951;DHT22;25629;51.444;-2.606;2022-12-07T07:32:29;1.10;99.90
39951;DHT22;25629;51.444;-2.606;2022-12-07T07:34:55;1.10;99.90
39951;DHT22;25629;51.444;-2.606;2022-12-07T07:37:21;1.10;99.90
39951;DHT22;25629;51.444;-2.606;2022-12-07T07:39:46;1.30;99.90
39951;DHT22;25629;51.444;-2.606;2022-12-07T07:42:12;1.30;99.90
39951;DHT22;25629;51.444;-2.606;2022-12-07T07:44:38;1.30;99.90
39951;DHT22;25629;51.444;-2.606;2022-12-07T07:47:03;1.30;99.90
39951;DHT22;25629;51.444;-2.606;2022-12-07T07:49:29;1.20;99.90
39951;DHT22;25629;51.444;-2.606;2022-12-07T07:51:55;1.10;99.90
39951;DHT22;25629;51.444;-2.606;2022-12-07T07:54:20;1.10;99.90
39951;DHT22;25629;51.444;-2.606;2022-12-07T07:56:46;1.10;99.90
39951;DHT22;25629;51.444;-2.606;2022-12-07T07:59:12;1.00;99.90
39951;DHT22;25629;51.444;-2.606;2022-12-07T08:01:37;1.10;99.90
39951;DHT22;25629;51.444;-2.606;2022-12-07T08:04:03;1.10;99.90
39951;DHT22;25629;51.444;-2.606;2022-12-07T08:06:29;1.20;99.90
39951;DHT22;25629;51.444;-2.606;2022-12-07T08:08:54;1.20;99.90
39951;DHT22;25629;51.444;-2.606;2022-12-07T08:11:20;1.20;99.90
39951;DHT22;25629;51.444;-2.606;2022-12-07T08:13:46;1.20;99.90
39951;DHT22;25629;51.444;-2.606;2022-12-07T08:16:13;1.20;99.90
39951;DHT22;25629;51.444;-2.606;2022-12-07T08:18:40;1.20;99.90
39951;DHT22;25629;51.444;-2.606;2022-12-07T08:21:07;1.10;99.90
39951;DHT22;25629;51.444;-2.606;2022-12-07T08:23:33;1.10;99.90
39951;DHT22;25629;51.444;-2.606;2022-12-07T08:26:12;1.10;99.90
39951;DHT22;25629;51.444;-2.606;2022-12-07T08:28:38;1.10;99.90
39951;DHT22;25629;51.444;-2.606;2022-12-07T08:31:06;1.20;99.90
39951;DHT22;25629;51.444;-2.606;2022-12-07T08:33:33;1.20;99.90
39951;DHT22;25629;51.444;-2.606;2022-12-07T08:36:10;1.20;99.90
39951;DHT22;25629;51.444;-2.606;2022-12-07T08:38:37;1.10;99.90
39951;DHT22;25629;51.444;-2.606;2022-12-07T08:41:04;1.10;99.90
39951;DHT22;25629;51.444;-2.606;2022-12-07T08:43:30;1.20;99.90
39951;DHT22;25629;51.444;-2.606;2022-12-07T08:48:34;1.20;99.90
39951;DHT22;25629;51.444;-2.606;2022-12-07T08:51:02;1.20;99.90
39951;DHT22;25629;51.444;-2.606;2022-12-07T08:53:28;1.20;99.90
39951;DHT22;25629;51.444;-2.606;2022-12-07T08:55:56;1.30;99.90
39951;DHT22;25629;51.444;-2.606;2022-12-07T08:58:23;1.30;99.90
39951;DHT22;25629;51.444;-2.606;2022-12-07T09:00:49;1.30;99.90
39951;DHT22;25629;51.444;-2.606;2022-12-07T09:03:14;1.40;99.90
39951;DHT22;25629;51.444;-2.606;2022-12-07T09:05:40;1.50;99.90
39951;DHT22;25629;51.444;-2.606;2022-12-07T09:08:06;1.40;99.90
39951;DHT22;25629;51.444;-2.606;2022-12-07T09:10:32;1.50;99.90
39951;DHT22;25629;51.444;-2.606;2022-12-07T09:12:58;1.60;99.90
39951;DHT22;25629;51.444;-2.606;2022-12-07T09:15:28;1.60;99.90
39951;DHT22;25629;51.444;-2.606;2022-12-07T09:17:54;1.60;99.90
39951;DHT22;25629;51.444;-2.606;2022-12-07T09:20:20;1.70;99.90
39951;DHT22;25629;51.444;-2.606;2022-12-07T09:22:46;1.70;99.90
39951;DHT22;25629;51.444;-2.606;2022-12-07T09:25:11;1.70;99.90
39951;DHT22;25629;51.444;-2.606;2022-12-07T09:27:37;1.70;99.90
39951;DHT22;25629;51.444;-2.606;2022-12-07T09:30:04;1.80;99.90
39951;DHT22;25629;51.444;-2.606;2022-12-07T09:32:30;1.80;99.90
39951;DHT22;25629;51.444;-2.606;2022-12-07T09:34:55;1.90;99.90
39951;DHT22;25629;51.444;-2.606;2022-12-07T09:37:22;2.00;99.90
39951;DHT22;25629;51.444;-2.606;2022-12-07T09:39:47;2.20;99.90
39951;DHT22;25629;51.444;-2.606;2022-12-07T09:42:29;2.40;99.90
39951;DHT22;25629;51.444;-2.606;2022-12-07T09:44:55;2.80;99.90
39951;DHT22;25629;51.444;-2.606;2022-12-07T09:47:21;3.00;99.90
39951;DHT22;25629;51.444;-2.606;2022-12-07T09:49:47;3.30;99.90
39951;DHT22;25629;51.444;-2.606;2022-12-07T09:52:25;3.50;99.90
39951;DHT22;25629;51.444;-2.606;2022-12-07T09:54:52;3.80;99.90
39951;DHT22;25629;51.444;-2.606;2022-12-07T09:57:25;3.90;99.90
39951;DHT22;25629;51.444;-2.606;2022-12-07T10:00:00;3.90;99.90
39951;DHT22;25629;51.444;-2.606;2022-12-07T10:02:39;4.10;99.90
39951;DHT22;25629;51.444;-2.606;2022-12-07T10:05:14;4.30;99.90
39951;DHT22;25629;51.444;-2.606;2022-12-07T10:07:41;4.40;99.90
39951;DHT22;25629;51.444;-2.606;2022-12-07T10:10:14;4.30;99.90
39951;DHT22;25629;51.444;-2.606;2022-12-07T10:12:57;4.30;99.90
39951;DHT22;25629;51.444;-2.606;2022-12-07T10:15:23;4.20;99.90
39951;DHT22;25629;51.444;-2.606;2022-12-07T10:17:50;4.30;99.90
39951;DHT22;25629;51.444;-2.606;2022-12-07T10:20:23;4.50;99.90
39951;DHT22;25629;51.444;-2.606;2022-12-07T10:23:04;4.80;99.90
39951;DHT22;25629;51.444;-2.606;2022-12-07T10:25:36;5.20;99.90
39951;DHT22;25629;51.444;-2.606;2022-12-07T10:30:47;5.80;99.90
39951;DHT22;25629;51.444;-2.606;2022-12-07T10:33:46;6.00;99.90
39951;DHT22;25629;51.444;-2.606;2022-12-07T10:36:18;6.10;99.90
39951;DHT22;25629;51.444;-2.606;2022-12-07T10:39:02;6.00;99.90
39951;DHT22;25629;51.444;-2.606;2022-12-07T10:41:29;5.80;99.90
39951;DHT22;25629;51.444;-2.606;2022-12-07T10:43:56;5.60;99.90
39951;DHT22;25629;51.444;-2.606;2022-12-07T10:54:39;5.70;99.90
39951;DHT22;25629;51.444;-2.606;2022-12-07T11:11:09;8.20;99.90
39951;DHT22;25629;51.444;-2.606;2022-12-07T11:38:53;6.40;99.90
39951;DHT22;25629;51.444;-2.606;2022-12-07T11:41:23;6.40;99.90
39951;DHT22;25629;51.444;-2.606;2022-12-07T11:44:22;6.30;99.90
39951;DHT22;25629;51.444;-2.606;2022-12-07T11:46:58;6.30;99.90
39951;DHT22;25629;51.444;-2.606;2022-12-07T11:50:17;6.30;99.90
39951;DHT22;25629;51.444;-2.606;2022-12-07T11:52:43;6.10;99.90
39951;DHT22;25629;51.444;-2.606;2022-12-07T11:55:19;6.10;99.90
39951;DHT22;25629;51.444;-2.606;2022-12-07T11:57:50;6.10;99.90
39951;DHT22;25629;51.444;-2.606;2022-12-07T12:00:18;6.00;99.90
39951;DHT22;25629;51.444;-2.606;2022-12-07T12:03:01;6.10;99.90
39951;DHT22;25629;51.444;-2.606;2022-12-07T12:05:29;6.10;99.90
39951;DHT22;25629;51.444;-2.606;2022-12-07T12:21:32;6.40;99.90
39951;DHT22;25629;51.444;-2.606;2022-12-07T12:24:13;6.40;99.90
39951;DHT22;25629;51.444;-2.606;2022-12-07T12:26:52;6.40;99.90
39951;DHT22;25629;51.444;-2.606;2022-12-07T12:29:28;6.50;99.90
39951;DHT22;25629;51.444;-2.606;2022-12-07T12:32:20;6.70;99.90
39951;DHT22;25629;51.444;-2.606;2022-12-07T12:37:46;6.50;99.90
39951;DHT22;25629;51.444;-2.606;2022-12-07T12:42:45;6.40;99.90
39951;DHT22;25629;51.444;-2.606;2022-12-07T12:45:29;6.40;99.90
39951;DHT22;25629;51.444;-2.606;2022-12-07T12:50:31;6.30;99.90
39951;DHT22;25629;51.444;-2.606;2022-12-07T12:53:24;6.30;99.90
39951;DHT22;25629;51.444;-2.606;2022-12-07T12:58:29;6.30;99.90
39951;DHT22;25629;51.444;-2.606;2022-12-07T13:01:33;6.20;99.90
39951;DHT22;25629;51.444;-2.606;2022-12-07T13:04:03;6.20;99.90
39951;DHT22;25629;51.444;-2.606;2022-12-07T13:06:35;6.30;99.90
39951;DHT22;25629;51.444;-2.606;2022-12-07T13:09:03;6.20;99.90
39951;DHT22;25629;51.444;-2.606;2022-12-07T13:11:44;6.20;99.90
39951;DHT22;25629;51.444;-2.606;2022-12-07T13:17:11;6.30;99.90
39951;DHT22;25629;51.444;-2.606;2022-12-07T13:28:02;6.20;99.90
39951;DHT22;25629;51.444;-2.606;2022-12-07T13:30:32;6.20;99.90
39951;DHT22;25629;51.444;-2.606;2022-12-07T13:33:05;6.20;99.90
39951;DHT22;25629;51.444;-2.606;2022-12-07T13:35:36;6.30;99.90
39951;DHT22;25629;51.444;-2.606;2022-12-07T13:38:13;6.40;99.90
39951;DHT22;25629;51.444;-2.606;2022-12-07T13:40:40;6.40;99.90
39951;DHT22;25629;51.444;-2.606;2022-12-07T13:43:14;6.50;99.90
39951;DHT22;25629;51.444;-2.606;2022-12-07T13:45:41;6.50;99.90
39951;DHT22;25629;51.444;-2.606;2022-12-07T13:50:55;6.50;99.90
39951;DHT22;25629;51.444;-2.606;2022-12-07T13:53:21;6.50;99.90
39951;DHT22;25629;51.444;-2.606;2022-12-07T13:55:47;6.40;99.90
39951;DHT22;25629;51.444;-2.606;2022-12-07T13:58:13;6.30;99.90
39951;DHT22;25629;51.444;-2.606;2022-12-07T14:00:40;6.30;99.90
39951;DHT22;25629;51.444;-2.606;2022-12-07T14:05:40;6.10;99.90
39951;DHT22;25629;51.444;-2.606;2022-12-07T14:08:22;6.10;99.90
39951;DHT22;25629;51.444;-2.606;2022-12-07T14:13:38;6.20;99.90
39951;DHT22;25629;51.444;-2.606;2022-12-07T14:18:46;6.20;99.90
39951;DHT22;25629;51.444;-2.606;2022-12-07T14:23:39;6.30;99.90
39951;DHT22;25629;51.444;-2.606;2022-12-07T14:26:11;6.30;99.90
39951;DHT22;25629;51.444;-2.606;2022-12-07T14:28:39;6.10;99.90
39951;DHT22;25629;51.444;-2.606;2022-12-07T14:31:23;6.10;99.90
39951;DHT22;25629;51.444;-2.606;2022-12-07T14:33:49;6.10;99.90
39951;DHT22;25629;51.444;-2.606;2022-12-07T14:36:15;6.10;99.90
39951;DHT22;25629;51.444;-2.606;2022-12-07T14:38:41;6.20;99.90
39951;DHT22;25629;51.444;-2.606;2022-12-07T14:41:16;6.20;99.90
39951;DHT22;25629;51.444;-2.606;2022-12-07T14:44:01;6.30;99.90
39951;DHT22;25629;51.444;-2.606;2022-12-07T14:46:27;6.30;99.90
39951;DHT22;25629;51.444;-2.606;2022-12-07T14:48:53;6.30;99.90
39951;DHT22;25629;51.444;-2.606;2022-12-07T14:51:19;6.40;99.90
39951;DHT22;25629;51.444;-2.606;2022-12-07T14:53:48;6.40;99.90
39951;DHT22;25629;51.444;-2.606;2022-12-07T14:56:14;6.40;99.90
39951;DHT22;25629;51.444;-2.606;2022-12-07T14:58:40;6.20;99.90
39951;DHT22;25629;51.444;-2.606;2022-12-07T15:01:06;6.20;99.90
39951;DHT22;25629;51.444;-2.606;2022-12-07T15:03:32;6.10;99.90
39951;DHT22;25629;51.444;-2.606;2022-12-07T15:06:00;6.00;99.90
39951;DHT22;25629;51.444;-2.606;2022-12-07T15:08:26;6.00;99.90
39951;DHT22;25629;51.444;-2.606;2022-12-07T15:10:52;6.00;99.90
39951;DHT22;25629;51.444;-2.606;2022-12-07T15:13:18;5.90;99.90
39951;DHT22;25629;51.444;-2.606;2022-12-07T15:16:02;5.90;99.90
39951;DHT22;25629;51.444;-2.606;2022-12-07T15:18:28;5.80;99.90
39951;DHT22;25629;51.444;-2.606;2022-12-07T15:20:53;5.70;99.90
39951;DHT22;25629;51.444;-2.606;2022-12-07T15:23:19;5.60;99.90
39951;DHT22;25629;51.444;-2.606;2022-12-07T15:25:47;5.50;99.90
39951;DHT22;25629;51.444;-2.606;2022-12-07T15:28:13;5.50;99.90
39951;DHT22;25629;51.444;-2.606;2022-12-07T15:30:43;5.40;99.90
39951;DHT22;25629;51.444;-2.606;2022-12-07T15:33:09;5.30;99.90
39951;DHT22;25629;51.444;-2.606;2022-12-07T15:35:41;5.20;99.90
39951;DHT22;25629;51.444;-2.606;2022-12-07T15:38:07;5.10;99.90
39951;DHT22;25629;51.444;-2.606;2022-12-07T15:40:34;5.00;99.90
39951;DHT22;25629;51.444;-2.606;2022-12-07T15:43:00;4.90;99.90
39951;DHT22;25629;51.444;-2.606;2022-12-07T15:45:26;4.80;99.90
39951;DHT22;25629;51.444;-2.606;2022-12-07T15:47:52;4.80;99.90
39951;DHT22;25629;51.444;-2.606;2022-12-07T15:50:20;4.80;99.90
39951;DHT22;25629;51.444;-2.606;2022-12-07T15:52:45;4.70;99.90
39951;DHT22;25629;51.444;-2.606;2022-12-07T15:55:11;4.60;99.90
39951;DHT22;25629;51.444;-2.606;2022-12-07T15:57:37;4.40;99.90
39951;DHT22;25629;51.444;-2.606;2022-12-07T16:00:05;4.30;99.90
39951;DHT22;25629;51.444;-2.606;2022-12-07T16:02:31;4.20;99.90
39951;DHT22;25629;51.444;-2.606;2022-12-07T16:04:57;4.10;99.90
39951;DHT22;25629;51.444;-2.606;2022-12-07T16:07:23;4.00;99.90
39951;DHT22;25629;51.444;-2.606;2022-12-07T16:09:49;3.90;99.90
39951;DHT22;25629;51.444;-2.606;2022-12-07T16:12:15;3.80;99.90
39951;DHT22;25629;51.444;-2.606;2022-12-07T16:14:41;3.80;99.90
39951;DHT22;25629;51.444;-2.606;2022-12-07T16:17:08;3.80;99.90
39951;DHT22;25629;51.444;-2.606;2022-12-07T16:19:35;3.80;99.90
39951;DHT22;25629;51.444;-2.606;2022-12-07T16:22:01;3.80;99.90
39951;DHT22;25629;51.444;-2.606;2022-12-07T16:24:27;3.80;99.90
39951;DHT22;25629;51.444;-2.606;2022-12-07T16:26:53;3.70;99.90
39951;DHT22;25629;51.444;-2.606;2022-12-07T16:29:21;3.70;99.90
39951;DHT22;25629;51.444;-2.606;2022-12-07T16:31:47;3.50;99.90
39951;DHT22;25629;51.444;-2.606;2022-12-07T16:34:13;3.50;99.90
39951;DHT22;25629;51.444;-2.606;2022-12-07T16:36:39;3.40;99.90
39951;DHT22;25629;51.444;-2.606;2022-12-07T16:39:06;3.30;99.90
39951;DHT22;25629;51.444;-2.606;2022-12-07T16:41:32;3.30;99.90
39951;DHT22;25629;51.444;-2.606;2022-12-07T16:44:03;3.20;99.90
39951;DHT22;25629;51.444;-2.606;2022-12-07T16:46:29;3.20;99.90
39951;DHT22;25629;51.444;-2.606;2022-12-07T16:48:55;3.20;99.90
39951;DHT22;25629;51.444;-2.606;2022-12-07T16:51:21;3.20;99.90
39951;DHT22;25629;51.444;-2.606;2022-12-07T16:53:46;3.20;99.90
39951;DHT22;25629;51.444;-2.606;2022-12-07T16:56:14;3.30;99.90
39951;DHT22;25629;51.444;-2.606;2022-12-07T16:58:42;3.20;99.90
39951;DHT22;25629;51.444;-2.606;2022-12-07T17:01:15;3.20;99.90
39951;DHT22;25629;51.444;-2.606;2022-12-07T17:03:42;3.20;99.90
39951;DHT22;25629;51.444;-2.606;2022-12-07T17:08:38;3.20;99.90
39951;DHT22;25629;51.444;-2.606;2022-12-07T17:11:13;3.10;99.90
39951;DHT22;25629;51.444;-2.606;2022-12-07T17:13:39;3.00;99.90
39951;DHT22;25629;51.444;-2.606;2022-12-07T17:16:23;3.10;99.90
39951;DHT22;25629;51.444;-2.606;2022-12-07T17:18:49;3.10;99.90
39951;DHT22;25629;51.444;-2.606;2022-12-07T17:21:14;3.10;99.90
39951;DHT22;25629;51.444;-2.606;2022-12-07T17:23:40;3.10;99.90
39951;DHT22;25629;51.444;-2.606;2022-12-07T17:26:11;3.00;99.90
39951;DHT22;25629;51.444;-2.606;2022-12-07T17:28:38;2.90;99.90
39951;DHT22;25629;51.444;-2.606;2022-12-07T17:31:08;2.90;99.90
39951;DHT22;25629;51.444;-2.606;2022-12-07T17:33:34;2.80;99.90
39951;DHT22;25629;51.444;-2.606;2022-12-07T17:36:00;2.70;99.90
39951;DHT22;25629;51.444;-2.606;2022-12-07T17:38:28;2.70;99.90
39951;DHT22;25629;51.444;-2.606;2022-12-07T17:40:54;2.60;99.90
39951;DHT22;25629;51.444;-2.606;2022-12-07T17:43:19;2.50;99.90
39951;DHT22;25629;51.444;-2.606;2022-12-07T17:45:45;2.50;99.90
39951;DHT22;25629;51.444;-2.606;2022-12-07T17:48:11;2.50;99.90
39951;DHT22;25629;51.444;-2.606;2022-12-07T17:50:38;2.50;99.90
39951;DHT22;25629;51.444;-2.606;2022-12-07T17:53:23;2.40;99.90